Time;durP1;ratioP1;P1;durP2;ratioP2;P2;SDS_P1;SDS_P2;PMS_P1;PMS_P2;Temp;Humidity;BMP_temperature;BMP_pressure;BME280_temperature;BME280_humidity;BME280_pressure;Samples;Min_cycle;Max_cycle;Signal;HPM_P1;HPM_P2
2021/10/16 00:01:45;;;;;;;12.40;5.75;;;10.20;78.80;;;;;;5072710;28;20444;-83
2021/10/16 00:04:12;;;;;;;10.15;5.47;;;10.20;78.80;;;;;;5073052;28;20044;-83
2021/10/16 00:06:39;;;;;;;13.52;6.20;;;10.20;78.70;;;;;;5073068;28;20041;-83
2021/10/16 00:09:06;;;;;;;12.68;6.30;;;10.20;78.70;;;;;;5073362;28;20049;-83
2021/10/16 00:11:33;;;;;;;12.10;5.78;;;10.10;78.60;;;;;;5073523;28;20450;-83
2021/10/16 00:13:59;;;;;;;9.90;5.70;;;10.10;78.50;;;;;;5072882;28;20060;-81
2021/10/16 00:16:26;;;;;;;12.30;5.68;;;10.00;78.50;;;;;;5072544;28;20489;-83
2021/10/16 00:18:53;;;;;;;12.73;6.28;;;10.00;78.40;;;;;;5072712;28;20436;-83
2021/10/16 00:21:21;;;;;;;12.23;5.85;;;10.00;78.40;;;;;;5072790;28;20049;-82
2021/10/16 00:23:48;;;;;;;14.63;6.30;;;9.90;78.40;;;;;;5073049;28;20102;-83
2021/10/16 00:26:15;;;;;;;13.07;6.03;;;9.90;78.30;;;;;;5072844;28;20052;-82
2021/10/16 00:28:42;;;;;;;13.82;5.47;;;9.90;78.30;;;;;;5072685;28;20114;-84
2021/10/16 00:31:09;;;;;;;14.13;5.53;;;9.90;78.30;;;;;;5072226;28;20488;-84
2021/10/16 00:33:37;;;;;;;11.18;5.22;;;9.90;78.30;;;;;;5072594;28;20051;-83
2021/10/16 00:36:04;;;;;;;13.00;5.55;;;9.80;78.20;;;;;;5072637;28;20057;-84
2021/10/16 00:38:31;;;;;;;13.13;5.68;;;9.80;78.20;;;;;;5072924;28;20562;-83
2021/10/16 00:40:58;;;;;;;13.80;5.43;;;9.80;78.20;;;;;;5072388;28;20044;-84
2021/10/16 00:43:25;;;;;;;13.48;5.60;;;9.70;78.10;;;;;;5071184;28;20044;-83
2021/10/16 00:45:51;;;;;;;16.25;5.47;;;9.70;78.10;;;;;;5071903;28;20105;-83
2021/10/16 00:48:19;;;;;;;12.88;5.80;;;9.70;78.10;;;;;;5072472;28;20102;-83
2021/10/16 00:50:46;;;;;;;17.52;6.07;;;9.60;78.10;;;;;;5072594;28;20052;-83
2021/10/16 00:53:14;;;;;;;13.18;5.65;;;9.60;78.10;;;;;;5072230;28;20056;-83
2021/10/16 00:55:41;;;;;;;12.77;5.30;;;9.60;78.10;;;;;;5072130;28;20040;-83
2021/10/16 00:58:10;;;;;;;14.65;5.53;;;9.60;78.00;;;;;;5071788;28;20110;-83
2021/10/16 01:00:37;;;;;;;13.07;6.47;;;9.60;78.00;;;;;;5071557;28;20094;-84
2021/10/16 01:03:04;;;;;;;14.65;5.95;;;9.50;78.00;;;;;;5072069;28;20131;-83
2021/10/16 01:05:33;;;;;;;11.93;5.30;;;9.50;78.00;;;;;;5072609;28;20049;-84
2021/10/16 01:08:03;;;;;;;13.48;5.80;;;9.50;77.90;;;;;;5071989;28;20045;-82
2021/10/16 01:10:30;;;;;;;16.15;6.43;;;9.50;77.90;;;;;;5071780;28;20113;-83
2021/10/16 01:12:58;;;;;;;10.80;5.97;;;9.50;77.90;;;;;;5071883;28;20123;-84
2021/10/16 01:15:26;;;;;;;12.27;6.47;;;9.40;77.90;;;;;;5071524;28;20044;-83
2021/10/16 01:17:55;;;;;;;14.63;6.10;;;9.40;77.80;;;;;;5072129;28;20094;-83
2021/10/16 01:20:24;;;;;;;11.20;5.78;;;9.40;77.80;;;;;;5072206;28;20052;-84
2021/10/16 01:22:52;;;;;;;10.52;5.75;;;9.40;77.70;;;;;;5071548;28;20394;-83
2021/10/16 01:25:22;;;;;;;10.20;5.82;;;9.30;77.70;;;;;;5071247;28;20056;-84
2021/10/16 01:27:50;;;;;;;14.20;6.20;;;9.30;77.70;;;;;;5071612;28;20726;-84
2021/10/16 01:30:19;;;;;;;15.63;6.13;;;9.30;77.60;;;;;;5071215;28;20063;-84
2021/10/16 01:32:46;;;;;;;11.30;5.65;;;9.20;77.60;;;;;;5071796;28;20094;-84
2021/10/16 01:35:14;;;;;;;12.88;5.78;;;9.20;77.50;;;;;;5071399;28;20497;-83
2021/10/16 01:37:43;;;;;;;13.10;6.07;;;9.20;77.50;;;;;;5071205;28;20048;-83
2021/10/16 01:40:12;;;;;;;13.40;6.03;;;9.20;77.50;;;;;;5071302;28;20063;-84
2021/10/16 01:42:42;;;;;;;12.40;5.90;;;9.10;77.50;;;;;;5070966;28;20040;-83
2021/10/16 01:45:14;;;;;;;13.18;5.93;;;9.10;77.50;;;;;;5071268;28;20049;-84
2021/10/16 01:47:53;;;;;;;13.55;5.85;;;9.10;77.50;;;;;;5071833;28;20048;-83
2021/10/16 01:50:21;;;;;;;13.77;5.88;;;9.00;77.50;;;;;;5070697;28;20044;-84
2021/10/16 01:52:48;;;;;;;11.52;5.65;;;9.00;77.50;;;;;;5071015;28;20044;-83
2021/10/16 01:55:15;;;;;;;10.43;5.70;;;9.00;77.50;;;;;;5070930;28;20509;-83
2021/10/16 01:57:42;;;;;;;13.43;5.47;;;8.90;77.50;;;;;;5070748;28;20051;-82
2021/10/16 02:00:10;;;;;;;12.52;6.38;;;8.90;77.50;;;;;;5070902;28;20044;-83
2021/10/16 02:02:36;;;;;;;12.30;5.57;;;8.90;77.50;;;;;;5071390;28;20044;-84
2021/10/16 02:05:05;;;;;;;11.60;6.57;;;8.90;77.50;;;;;;5070669;28;20062;-82
2021/10/16 02:07:32;;;;;;;11.80;5.47;;;8.90;77.50;;;;;;5069432;28;20036;-83
2021/10/16 02:09:58;;;;;;;15.45;5.57;;;8.90;77.50;;;;;;5070831;28;20052;-84
2021/10/16 02:12:25;;;;;;;12.55;6.00;;;8.80;77.50;;;;;;5070472;28;20546;-83
2021/10/16 02:14:52;;;;;;;11.65;5.65;;;8.80;77.50;;;;;;5069569;28;20463;-84
2021/10/16 02:17:19;;;;;;;14.85;6.72;;;8.80;77.60;;;;;;5071109;28;20048;-84
2021/10/16 02:19:46;;;;;;;13.07;5.75;;;8.80;77.60;;;;;;5070441;28;20078;-83
2021/10/16 02:22:13;;;;;;;12.32;6.28;;;8.80;77.60;;;;;;5070469;28;20045;-84
2021/10/16 02:24:39;;;;;;;9.93;5.70;;;8.70;77.60;;;;;;5070549;28;20496;-83
2021/10/16 02:27:06;;;;;;;12.48;5.90;;;8.70;77.60;;;;;;5070063;28;20048;-83
2021/10/16 02:29:33;;;;;;;10.35;5.43;;;8.70;77.60;;;;;;5071065;28;20558;-83
2021/10/16 02:32:00;;;;;;;12.40;5.30;;;8.70;77.60;;;;;;5070340;28;20044;-82
2021/10/16 02:34:27;;;;;;;11.35;5.70;;;8.70;77.60;;;;;;5070482;28;20105;-83
2021/10/16 02:36:54;;;;;;;9.90;5.55;;;8.70;77.60;;;;;;5070411;28;20094;-84
2021/10/16 02:39:21;;;;;;;10.85;5.65;;;8.60;77.50;;;;;;5070334;28;20098;-83
2021/10/16 02:41:48;;;;;;;10.13;5.63;;;8.60;77.50;;;;;;5070237;28;20040;-84
2021/10/16 02:44:15;;;;;;;11.57;5.55;;;8.60;77.40;;;;;;5070666;28;20098;-84
2021/10/16 02:46:42;;;;;;;9.52;5.32;;;8.60;77.40;;;;;;5070128;28;20052;-84
2021/10/16 02:49:09;;;;;;;10.10;5.50;;;8.50;77.30;;;;;;5070176;28;20500;-83
2021/10/16 02:51:36;;;;;;;12.27;5.40;;;8.50;77.30;;;;;;5070208;28;20633;-83
2021/10/16 02:54:03;;;;;;;9.48;5.25;;;8.50;77.20;;;;;;5070317;28;20102;-83
2021/10/16 02:56:29;;;;;;;12.32;5.20;;;8.40;77.20;;;;;;5070481;28;20622;-83
2021/10/16 02:58:56;;;;;;;12.57;6.18;;;8.40;77.10;;;;;;5070049;28;20129;-83
2021/10/16 03:01:23;;;;;;;11.40;5.57;;;8.40;77.10;;;;;;5070083;28;20045;-84
2021/10/16 03:03:50;;;;;;;12.02;5.90;;;8.40;77.10;;;;;;5070147;28;20059;-83
2021/10/16 03:06:17;;;;;;;13.32;6.30;;;8.40;77.10;;;;;;5070234;28;20098;-84
2021/10/16 03:08:44;;;;;;;10.00;5.85;;;8.30;77.00;;;;;;5070771;28;20098;-84
2021/10/16 03:11:11;;;;;;;10.52;5.35;;;8.30;77.00;;;;;;5069808;28;20044;-84
2021/10/16 03:13:38;;;;;;;10.10;5.75;;;8.30;77.00;;;;;;5069873;28;20714;-84
2021/10/16 03:16:06;;;;;;;11.68;6.15;;;8.30;77.00;;;;;;5069977;28;20102;-83
2021/10/16 03:18:33;;;;;;;11.70;5.68;;;8.30;77.00;;;;;;5070076;28;20131;-84
2021/10/16 03:21:00;;;;;;;11.85;6.22;;;8.20;76.90;;;;;;5069964;28;20055;-84
2021/10/16 03:23:27;;;;;;;12.77;5.78;;;8.10;76.90;;;;;;5071841;28;20551;-83
2021/10/16 03:25:54;;;;;;;11.82;5.68;;;8.10;76.90;;;;;;5073376;28;20052;-83
2021/10/16 03:28:21;;;;;;;11.30;5.80;;;8.20;76.90;;;;;;5073890;28;20049;-84
2021/10/16 03:30:48;;;;;;;13.90;5.63;;;8.10;76.90;;;;;;5073725;28;20528;-83
2021/10/16 03:33:15;;;;;;;9.82;5.10;;;8.10;76.80;;;;;;5072633;28;20539;-83
2021/10/16 03:35:44;;;;;;;13.60;5.43;;;8.00;76.80;;;;;;5070213;28;20135;-83
2021/10/16 03:38:11;;;;;;;10.82;6.47;;;8.00;76.80;;;;;;5073621;28;20106;-84
2021/10/16 03:40:38;;;;;;;11.68;6.25;;;8.00;76.80;;;;;;5073142;28;20040;-84
2021/10/16 03:43:05;;;;;;;11.43;6.13;;;7.90;76.70;;;;;;5073507;28;20048;-84
2021/10/16 03:45:32;;;;;;;14.70;5.70;;;8.00;76.70;;;;;;5073716;28;20052;-83
2021/10/16 03:47:58;;;;;;;11.90;5.60;;;7.90;76.70;;;;;;5073954;28;20044;-84
2021/10/16 03:50:25;;;;;;;13.77;5.30;;;7.90;76.60;;;;;;5071936;28;20094;-83
2021/10/16 03:52:52;;;;;;;11.80;5.18;;;7.90;76.60;;;;;;5073508;28;20501;-84
2021/10/16 03:55:19;;;;;;;11.07;5.18;;;7.80;76.60;;;;;;5072917;28;20516;-84
2021/10/16 03:57:49;;;;;;;14.95;6.05;;;7.80;76.60;;;;;;5072135;28;20056;-84
2021/10/16 04:00:19;;;;;;;12.05;6.20;;;7.80;76.60;;;;;;5057622;28;20045;-85
2021/10/16 04:02:49;;;;;;;10.23;5.13;;;7.80;76.60;;;;;;5073590;28;20041;-84
2021/10/16 04:05:16;;;;;;;11.57;5.78;;;7.80;76.50;;;;;;5072682;28;20074;-84
2021/10/16 04:07:43;;;;;;;11.63;5.53;;;7.70;76.50;;;;;;5072712;28;20036;-84
2021/10/16 04:10:11;;;;;;;8.90;5.07;;;7.70;76.50;;;;;;5072927;28;20048;-84
2021/10/16 04:12:38;;;;;;;10.73;5.38;;;7.70;76.50;;;;;;5073109;28;20108;-83
2021/10/16 04:15:05;;;;;;;10.55;5.45;;;7.60;76.50;;;;;;5073016;28;20056;-83
2021/10/16 04:17:32;;;;;;;10.07;5.30;;;7.60;76.50;;;;;;5073648;28;20044;-84
2021/10/16 04:19:59;;;;;;;11.65;5.22;;;7.60;76.50;;;;;;5072880;28;20101;-84
2021/10/16 04:22:26;;;;;;;11.77;5.40;;;7.60;76.40;;;;;;5072556;28;20107;-84
2021/10/16 04:24:53;;;;;;;9.38;5.68;;;7.50;76.50;;;;;;5072527;28;20584;-83
2021/10/16 04:27:23;;;;;;;13.10;5.28;;;7.50;76.40;;;;;;5072799;28;20569;-82
2021/10/16 04:29:51;;;;;;;10.95;5.32;;;7.50;76.40;;;;;;5073045;28;20052;-83
2021/10/16 04:32:18;;;;;;;8.45;5.40;;;7.50;76.40;;;;;;5072215;28;20461;-83
2021/10/16 04:34:45;;;;;;;13.45;5.78;;;7.40;76.40;;;;;;5071376;28;20048;-84
2021/10/16 04:37:14;;;;;;;9.75;4.90;;;7.40;76.40;;;;;;5072364;28;20051;-84
2021/10/16 04:39:41;;;;;;;11.05;5.15;;;7.40;76.40;;;;;;5072353;28;20054;-84
2021/10/16 04:42:11;;;;;;;10.00;4.88;;;7.40;76.30;;;;;;5072599;28;20110;-83
2021/10/16 04:44:40;;;;;;;7.78;5.25;;;7.30;76.40;;;;;;5072997;28;20049;-84
2021/10/16 04:47:08;;;;;;;15.25;5.47;;;7.30;76.30;;;;;;5072405;28;20047;-84
2021/10/16 04:49:35;;;;;;;9.30;5.32;;;7.30;76.30;;;;;;5072363;28;20048;-85
2021/10/16 04:52:04;;;;;;;10.10;4.75;;;7.30;76.30;;;;;;5071913;28;20063;-85
2021/10/16 04:54:31;;;;;;;9.68;4.90;;;7.20;76.20;;;;;;5072425;28;20131;-84
2021/10/16 04:56:58;;;;;;;13.13;5.30;;;7.20;76.30;;;;;;5072420;28;20509;-84
2021/10/16 04:59:25;;;;;;;10.55;4.88;;;7.20;76.20;;;;;;5070642;28;20098;-85
2021/10/16 05:01:54;;;;;;;8.55;4.85;;;7.20;76.20;;;;;;5072022;28;20106;-84
2021/10/16 05:04:22;;;;;;;11.82;5.30;;;7.20;76.20;;;;;;5071944;28;20523;-84
2021/10/16 05:06:49;;;;;;;9.75;4.90;;;7.10;76.20;;;;;;5071579;28;20044;-85
2021/10/16 05:09:16;;;;;;;13.73;5.13;;;7.10;76.20;;;;;;5072297;28;20044;-84
2021/10/16 05:11:43;;;;;;;10.10;5.10;;;7.00;76.20;;;;;;5072544;28;20044;-84
2021/10/16 05:14:09;;;;;;;9.25;5.60;;;7.00;76.20;;;;;;5071966;28;20048;-85
2021/10/16 05:16:36;;;;;;;11.90;5.25;;;7.00;76.20;;;;;;5071869;28;20129;-86
2021/10/16 05:19:04;;;;;;;10.00;4.93;;;7.00;76.10;;;;;;5071581;28;21235;-85
2021/10/16 05:21:31;;;;;;;12.30;4.97;;;6.90;76.10;;;;;;5071336;28;20106;-85
2021/10/16 05:23:58;;;;;;;11.63;5.63;;;6.90;76.10;;;;;;5071898;28;20080;-85
2021/10/16 05:26:25;;;;;;;12.18;4.90;;;6.90;76.10;;;;;;5069912;28;20584;-82
2021/10/16 05:28:55;;;;;;;9.57;5.40;;;6.90;76.10;;;;;;5071571;28;20044;-85
2021/10/16 05:31:23;;;;;;;9.30;5.32;;;6.90;76.10;;;;;;5071382;28;20048;-83
2021/10/16 05:33:50;;;;;;;12.05;5.10;;;6.90;76.10;;;;;;5071451;28;20056;-83
2021/10/16 05:36:17;;;;;;;8.73;5.28;;;6.80;76.10;;;;;;5071264;28;20048;-84
2021/10/16 05:38:44;;;;;;;14.52;4.85;;;6.80;76.10;;;;;;5072018;28;20041;-84
2021/10/16 05:41:10;;;;;;;10.82;5.60;;;6.80;76.10;;;;;;5071343;28;20071;-84
2021/10/16 05:43:39;;;;;;;9.80;5.47;;;6.80;76.00;;;;;;5071105;28;20072;-83
2021/10/16 05:46:06;;;;;;;10.68;5.55;;;6.70;76.00;;;;;;5067706;28;20056;-84
2021/10/16 05:48:33;;;;;;;10.27;5.50;;;6.70;76.00;;;;;;5072075;28;20044;-84
2021/10/16 05:51:01;;;;;;;10.63;5.68;;;6.70;76.00;;;;;;5065323;28;20052;-83
2021/10/16 05:53:28;;;;;;;10.25;5.88;;;6.70;76.00;;;;;;5072679;28;20046;-84
2021/10/16 05:55:55;;;;;;;11.80;5.40;;;6.70;76.10;;;;;;5072231;28;20052;-84
2021/10/16 05:58:22;;;;;;;9.88;5.20;;;6.60;76.00;;;;;;5071742;28;20114;-84
2021/10/16 06:00:49;;;;;;;12.68;5.60;;;6.60;76.00;;;;;;5071881;28;20040;-84
2021/10/16 06:03:16;;;;;;;10.57;5.60;;;6.60;76.00;;;;;;5067342;28;20060;-84
2021/10/16 06:05:43;;;;;;;10.25;5.57;;;6.60;76.00;;;;;;5071896;28;20059;-84
2021/10/16 06:08:10;;;;;;;9.90;5.63;;;6.50;76.00;;;;;;5071864;28;20052;-85
2021/10/16 06:10:38;;;;;;;9.00;5.38;;;6.50;76.00;;;;;;5071924;28;20047;-85
2021/10/16 06:13:04;;;;;;;11.80;5.53;;;6.50;76.00;;;;;;5071395;28;20048;-84
2021/10/16 06:15:32;;;;;;;11.20;5.38;;;6.50;75.90;;;;;;5068939;28;20094;-84
2021/10/16 06:17:59;;;;;;;9.90;5.32;;;6.50;76.00;;;;;;5070919;28;20094;-85
2021/10/16 06:20:30;;;;;;;10.98;5.30;;;6.40;76.00;;;;;;5074362;28;20106;-85
2021/10/16 06:22:57;;;;;;;10.45;5.95;;;6.40;76.00;;;;;;5072402;28;20052;-84
2021/10/16 06:25:24;;;;;;;13.00;5.90;;;6.40;76.00;;;;;;5074662;28;20048;-89
2021/10/16 06:27:51;;;;;;;10.38;5.35;;;6.40;76.00;;;;;;5072026;28;20044;-85
2021/10/16 06:30:19;;;;;;;10.57;5.85;;;6.40;76.00;;;;;;5068613;28;20053;-86
2021/10/16 06:32:48;;;;;;;16.13;6.07;;;6.40;76.00;;;;;;5074040;28;20055;-86
2021/10/16 06:35:16;;;;;;;15.52;6.05;;;6.40;76.00;;;;;;5073621;28;20048;-86
2021/10/16 06:37:43;;;;;;;11.35;5.75;;;6.40;76.00;;;;;;5072000;28;20045;-85
2021/10/16 06:40:10;;;;;;;15.68;7.43;;;6.40;76.00;;;;;;5073501;28;20052;-85
2021/10/16 06:42:37;;;;;;;11.93;6.97;;;6.30;76.00;;;;;;5070688;28;20496;-86
2021/10/16 06:45:05;;;;;;;15.15;7.70;;;6.30;76.00;;;;;;5070433;28;20057;-85
2021/10/16 06:47:32;;;;;;;14.13;8.63;;;6.30;76.00;;;;;;5074878;28;20044;-84
2021/10/16 06:49:58;;;;;;;16.23;9.15;;;6.30;76.10;;;;;;5071748;28;20109;-83
2021/10/16 06:52:25;;;;;;;17.33;10.38;;;6.20;76.10;;;;;;5072013;28;20098;-84
2021/10/16 06:54:52;;;;;;;15.05;9.90;;;6.20;76.10;;;;;;5072111;28;20040;-85
2021/10/16 06:57:19;;;;;;;15.93;9.55;;;6.30;76.10;;;;;;5067372;28;20045;-85
2021/10/16 06:59:46;;;;;;;15.45;10.00;;;6.20;76.10;;;;;;5074702;28;20101;-85
2021/10/16 07:02:12;;;;;;;13.75;9.43;;;6.20;76.20;;;;;;5071632;28;20504;-85
2021/10/16 07:04:39;;;;;;;18.25;9.77;;;6.20;76.20;;;;;;5071810;28;20154;-85
2021/10/16 07:07:06;;;;;;;18.05;10.77;;;6.20;76.30;;;;;;5071829;28;20577;-85
2021/10/16 07:09:33;;;;;;;20.23;10.93;;;6.20;76.30;;;;;;5070054;28;20045;-85
2021/10/16 07:12:00;;;;;;;20.58;11.18;;;6.20;76.30;;;;;;5071217;28;20463;-87
2021/10/16 07:14:27;;;;;;;18.27;12.55;;;6.20;76.40;;;;;;5074246;28;20459;-85
2021/10/16 07:16:54;;;;;;;17.38;11.95;;;6.20;76.40;;;;;;5071453;28;20119;-85
2021/10/16 07:19:21;;;;;;;20.42;13.05;;;6.20;76.50;;;;;;5071917;28;20550;-84
2021/10/16 07:21:48;;;;;;;21.27;12.00;;;6.20;76.50;;;;;;5073659;28;20051;-86
2021/10/16 07:24:15;;;;;;;18.10;11.57;;;6.20;76.60;;;;;;5067668;28;20456;-85
2021/10/16 07:26:46;;;;;;;19.65;12.82;;;6.20;76.60;;;;;;5082939;28;20059;-84
2021/10/16 07:29:13;;;;;;;19.95;13.00;;;6.20;76.60;;;;;;5072088;28;20048;-85
2021/10/16 07:31:40;;;;;;;21.15;12.68;;;6.20;76.70;;;;;;5071043;28;20090;-86
2021/10/16 07:34:07;;;;;;;22.58;14.40;;;6.20;76.80;;;;;;5070957;28;20044;-84
2021/10/16 07:36:36;;;;;;;27.52;15.82;;;6.20;76.80;;;;;;5069472;28;20573;-85
2021/10/16 07:39:05;;;;;;;29.77;17.73;;;6.30;76.90;;;;;;5070125;28;20048;-85
2021/10/16 07:41:32;;;;;;;26.40;17.52;;;6.30;76.90;;;;;;5074189;28;20535;-85
2021/10/16 07:44:02;;;;;;;27.20;16.83;;;6.30;77.00;;;;;;5071568;28;20474;-85
2021/10/16 07:46:28;;;;;;;33.03;21.05;;;6.30;77.00;;;;;;5070969;28;20106;-86
2021/10/16 07:48:55;;;;;;;34.88;20.77;;;6.30;77.10;;;;;;5071306;28;20044;-87
2021/10/16 07:51:22;;;;;;;28.50;19.27;;;6.40;77.20;;;;;;5066012;28;20049;-86
2021/10/16 07:53:49;;;;;;;31.73;20.55;;;6.40;77.20;;;;;;5072005;28;20414;-85
2021/10/16 07:56:16;;;;;;;35.42;22.60;;;6.40;77.30;;;;;;5084357;28;20397;-86
2021/10/16 07:58:43;;;;;;;36.97;22.08;;;6.40;77.40;;;;;;5073949;28;20471;-86
2021/10/16 08:01:10;;;;;;;28.40;19.17;;;6.40;77.40;;;;;;5069732;28;20044;-84
2021/10/16 08:03:37;;;;;;;27.30;18.02;;;6.50;77.50;;;;;;5068985;28;20047;-84
2021/10/16 08:06:05;;;;;;;30.92;19.27;;;6.50;77.60;;;;;;5068477;28;20200;-85
2021/10/16 08:08:32;;;;;;;26.90;18.15;;;6.60;77.60;;;;;;5074752;28;20067;-83
2021/10/16 08:10:59;;;;;;;27.48;17.63;;;6.60;77.80;;;;;;5073523;28;20052;-84
2021/10/16 08:13:29;;;;;;;27.88;17.38;;;6.70;77.90;;;;;;5073835;28;20044;-83
2021/10/16 08:15:56;;;;;;;26.40;17.65;;;6.70;77.90;;;;;;5073444;28;20052;-83
2021/10/16 08:18:24;;;;;;;27.52;16.70;;;6.70;78.00;;;;;;5070280;28;20044;-82
2021/10/16 08:20:51;;;;;;;27.50;16.58;;;6.80;78.10;;;;;;5074569;28;20052;-83
2021/10/16 08:23:18;;;;;;;30.40;16.52;;;6.90;78.20;;;;;;5089677;28;20056;-83
2021/10/16 08:25:46;;;;;;;26.35;15.73;;;6.90;78.30;;;;;;5076441;28;20110;-82
2021/10/16 08:28:15;;;;;;;24.77;16.17;;;6.90;78.40;;;;;;5073316;28;20040;-83
2021/10/16 08:30:50;;;;;;;25.95;16.55;;;7.00;78.50;;;;;;5072509;28;20127;-82
2021/10/16 08:33:21;;;;;;;28.48;17.52;;;7.10;78.50;;;;;;5053547;28;20047;-83
2021/10/16 08:35:48;;;;;;;31.20;17.55;;;7.20;78.60;;;;;;5075619;28;20105;-83
2021/10/16 08:38:16;;;;;;;27.48;16.58;;;7.20;78.70;;;;;;5074670;28;20501;-83
2021/10/16 08:40:44;;;;;;;24.83;16.95;;;7.30;78.80;;;;;;5072988;28;20045;-84
2021/10/16 08:43:11;;;;;;;27.30;16.27;;;7.40;78.90;;;;;;5072717;28;20480;-82
2021/10/16 08:45:38;;;;;;;33.22;16.77;;;7.50;78.90;;;;;;5071854;28;20052;-83
2021/10/16 08:48:06;;;;;;;29.58;16.77;;;7.50;79.00;;;;;;5071061;28;20102;-82
2021/10/16 08:50:34;;;;;;;26.63;15.23;;;7.60;79.10;;;;;;5076243;28;20101;-82
2021/10/16 08:53:02;;;;;;;32.70;16.33;;;7.70;79.10;;;;;;5073008;28;20051;-83
2021/10/16 08:55:29;;;;;;;33.45;16.88;;;7.80;79.20;;;;;;5072843;28;20056;-83
2021/10/16 08:57:56;;;;;;;29.05;15.98;;;7.90;79.30;;;;;;5072412;28;20052;-83
2021/10/16 09:00:42;;;;;;;24.90;14.93;;;8.00;79.30;;;;;;5069493;28;20095;-83
2021/10/16 09:03:20;;;;;;;28.00;16.23;;;8.10;79.50;;;;;;5069360;28;20075;-82
2021/10/16 09:06:16;;;;;;;29.50;16.20;;;8.20;79.60;;;;;;5084177;28;20117;-83
2021/10/16 09:09:03;;;;;;;29.98;15.07;;;8.30;79.70;;;;;;5084591;28;20466;-82
2021/10/16 09:11:54;;;;;;;29.35;15.48;;;8.50;79.90;;;;;;5075378;28;20068;-83
2021/10/16 09:14:23;;;;;;;32.85;14.95;;;8.60;79.90;;;;;;5075733;28;20048;-82
2021/10/16 09:16:53;;;;;;;26.88;15.90;;;8.70;80.00;;;;;;5072531;28;20068;-82
2021/10/16 09:19:23;;;;;;;30.27;15.40;;;8.90;80.10;;;;;;5072000;28;20053;-83
2021/10/16 09:21:57;;;;;;;34.63;18.50;;;9.00;80.10;;;;;;5072210;28;20059;-82
2021/10/16 09:24:30;;;;;;;36.65;17.55;;;9.20;80.20;;;;;;5068976;28;20098;-82
2021/10/16 09:27:03;;;;;;;33.80;16.60;;;9.40;80.30;;;;;;5071876;28;20060;-82
2021/10/16 09:29:40;;;;;;;31.85;16.80;;;9.60;80.30;;;;;;5074959;28;20143;-82
2021/10/16 09:32:12;;;;;;;31.73;16.33;;;9.70;80.30;;;;;;5072346;28;20048;-83
2021/10/16 09:34:47;;;;;;;36.30;14.95;;;9.90;80.30;;;;;;5072088;28;20040;-84
2021/10/16 09:37:18;;;;;;;29.60;14.20;;;10.10;80.20;;;;;;5071904;28;20421;-83
2021/10/16 09:39:45;;;;;;;30.55;14.05;;;10.30;80.10;;;;;;5071585;28;20048;-82
2021/10/16 09:42:12;;;;;;;25.70;13.27;;;10.50;80.00;;;;;;5066492;28;20053;-83
2021/10/16 09:44:40;;;;;;;28.00;12.88;;;10.70;79.80;;;;;;5076783;28;20521;-83
2021/10/16 09:47:07;;;;;;;31.45;12.75;;;10.90;79.60;;;;;;5072409;28;20106;-83
2021/10/16 09:49:43;;;;;;;21.15;11.38;;;11.10;79.40;;;;;;5073142;28;20040;-83
2021/10/16 09:52:13;;;;;;;25.90;12.73;;;11.30;79.10;;;;;;5072630;28;20048;-83
2021/10/16 09:54:45;;;;;;;27.70;11.88;;;11.40;78.70;;;;;;5072138;28;20488;-83
2021/10/16 09:57:13;;;;;;;22.10;10.63;;;11.60;78.40;;;;;;5069192;28;20801;-83
2021/10/16 09:59:42;;;;;;;26.35;9.95;;;11.80;78.10;;;;;;5076674;28;20045;-83
2021/10/16 10:02:10;;;;;;;23.88;10.20;;;11.90;77.70;;;;;;5072575;28;20501;-83
2021/10/16 10:04:47;;;;;;;21.90;9.35;;;12.10;77.30;;;;;;5072685;28;20043;-84
2021/10/16 10:07:16;;;;;;;19.67;8.82;;;12.30;76.90;;;;;;5072464;28;20105;-83
2021/10/16 10:09:45;;;;;;;22.17;9.20;;;12.40;76.60;;;;;;5070655;28;20051;-83
2021/10/16 10:12:16;;;;;;;17.35;7.13;;;12.60;76.20;;;;;;5068914;28;20049;-83
2021/10/16 10:14:48;;;;;;;17.75;7.88;;;12.70;75.80;;;;;;5083381;28;20052;-84
2021/10/16 10:17:26;;;;;;;21.42;8.00;;;12.80;75.40;;;;;;5072867;28;20110;-84
2021/10/16 10:20:00;;;;;;;18.33;6.75;;;12.90;74.90;;;;;;5071299;28;20044;-84
2021/10/16 10:22:32;;;;;;;22.48;7.40;;;13.10;74.50;;;;;;5071283;28;20041;-82
2021/10/16 10:25:01;;;;;;;20.55;6.25;;;13.20;74.10;;;;;;5070979;28;20052;-82
2021/10/16 10:27:44;;;;;;;17.67;6.28;;;13.40;73.70;;;;;;5068680;28;20045;-82
2021/10/16 10:30:34;;;;;;;13.77;5.47;;;13.40;73.30;;;;;;5067515;28;20453;-83
2021/10/16 10:33:16;;;;;;;14.73;5.32;;;13.50;72.80;;;;;;5078925;28;20580;-83
2021/10/16 10:36:03;;;;;;;15.70;5.72;;;13.70;72.40;;;;;;5083356;28;20048;-83
2021/10/16 10:38:32;;;;;;;20.80;6.10;;;13.80;71.90;;;;;;5073816;28;20113;-83
2021/10/16 10:41:25;;;;;;;15.88;6.63;;;13.90;71.50;;;;;;5070490;28;20084;-82
2021/10/16 10:43:54;;;;;;;17.45;5.10;;;13.90;71.00;;;;;;5070814;28;20566;-82
2021/10/16 10:46:25;;;;;;;15.75;4.95;;;14.10;70.60;;;;;;5069683;28;20049;-83
2021/10/16 10:48:52;;;;;;;13.80;3.72;;;14.20;70.10;;;;;;5070758;28;20052;-84
2021/10/16 10:51:38;;;;;;;17.73;4.80;;;14.30;69.70;;;;;;5068716;28;20052;-83
2021/10/16 10:54:10;;;;;;;12.98;4.43;;;14.40;69.10;;;;;;5068629;28;20048;-83
2021/10/16 10:56:39;;;;;;;15.30;4.72;;;14.40;68.70;;;;;;5074644;28;20386;-84
2021/10/16 10:59:09;;;;;;;12.68;4.18;;;14.50;68.20;;;;;;5070754;28;20044;-84
2021/10/16 11:01:43;;;;;;;12.20;3.80;;;14.60;67.80;;;;;;5070553;28;20044;-84
2021/10/16 11:04:31;;;;;;;17.45;4.18;;;14.60;67.40;;;;;;5070965;28;20044;-83
2021/10/16 11:07:01;;;;;;;13.30;4.20;;;14.70;67.10;;;;;;5070936;28;20089;-84
2021/10/16 11:09:28;;;;;;;15.05;4.45;;;14.70;66.70;;;;;;5067443;28;20060;-83
2021/10/16 11:11:55;;;;;;;17.23;4.38;;;14.80;66.40;;;;;;5071638;28;20052;-83
2021/10/16 11:14:35;;;;;;;11.23;3.58;;;14.90;66.10;;;;;;5072538;28;20455;-83
2021/10/16 11:17:05;;;;;;;13.13;3.25;;;14.90;65.80;;;;;;5070574;28;20057;-84
2021/10/16 11:19:51;;;;;;;11.88;3.30;;;14.90;65.60;;;;;;5070316;28;20102;-83
2021/10/16 11:22:21;;;;;;;16.20;3.92;;;14.90;65.30;;;;;;5070563;28;20127;-84
2021/10/16 11:24:48;;;;;;;18.80;3.97;;;14.90;65.00;;;;;;5069958;28;20086;-84
2021/10/16 11:27:24;;;;;;;15.15;3.35;;;14.90;64.70;;;;;;5067021;28;20044;-83
2021/10/16 11:29:51;;;;;;;10.52;3.53;;;14.90;64.40;;;;;;5082734;28;20052;-84
2021/10/16 11:32:23;;;;;;;14.65;3.53;;;14.90;64.30;;;;;;5073592;28;20098;-83
2021/10/16 11:34:57;;;;;;;13.88;3.08;;;14.90;64.20;;;;;;5070407;28;20097;-83
2021/10/16 11:37:59;;;;;;;13.45;3.50;;;14.90;64.00;;;;;;5070102;28;20069;-83
2021/10/16 11:40:29;;;;;;;14.15;3.80;;;14.90;63.70;;;;;;5030632;28;20048;-86
2021/10/16 11:42:59;;;;;;;10.95;3.10;;;14.90;63.70;;;;;;5031473;28;20049;-84
2021/10/16 11:45:34;;;;;;;10.73;3.03;;;14.90;63.60;;;;;;5031596;28;20041;-84
2021/10/16 11:48:04;;;;;;;7.25;2.97;;;14.90;63.50;;;;;;5032061;28;20050;-84
2021/10/16 11:50:45;;;;;;;9.93;2.83;;;14.90;63.40;;;;;;5035801;28;20103;-84
2021/10/16 11:53:17;;;;;;;9.35;2.90;;;14.90;63.20;;;;;;5018406;28;20103;-85
2021/10/16 11:55:46;;;;;;;10.02;2.72;;;14.90;63.20;;;;;;5034236;28;20724;-84
2021/10/16 11:58:18;;;;;;;8.55;2.60;;;14.90;63.00;;;;;;5034676;28;20049;-85
2021/10/16 12:00:50;;;;;;;11.23;3.20;;;14.90;62.90;;;;;;5033889;28;20049;-84
2021/10/16 12:03:20;;;;;;;13.75;2.67;;;14.90;62.70;;;;;;5030306;28;20041;-83
2021/10/16 12:05:55;;;;;;;9.60;2.58;;;14.90;62.60;;;;;;5017731;28;20080;-84
2021/10/16 12:08:31;;;;;;;9.80;2.75;;;14.90;62.40;;;;;;5034893;28;20191;-84
2021/10/16 12:11:00;;;;;;;10.10;3.00;;;14.90;62.20;;;;;;5034146;28;20468;-84
2021/10/16 12:13:40;;;;;;;12.27;2.95;;;15.00;62.00;;;;;;5034107;28;20041;-84
2021/10/16 12:16:19;;;;;;;11.27;2.78;;;15.00;61.90;;;;;;5055000;28;20097;-84
2021/10/16 12:18:54;;;;;;;10.98;3.28;;;15.00;61.70;;;;;;5073330;28;20036;-83
2021/10/16 12:21:33;;;;;;;9.10;2.30;;;15.00;61.50;;;;;;5055815;28;20095;-83
2021/10/16 12:24:19;;;;;;;10.80;2.75;;;15.10;61.30;;;;;;5073410;28;20562;-84
2021/10/16 12:27:01;;;;;;;15.15;3.50;;;15.10;61.00;;;;;;5085116;28;20099;-84
2021/10/16 12:29:32;;;;;;;10.13;2.40;;;15.10;60.90;;;;;;5076021;28;20052;-83
2021/10/16 12:31:59;;;;;;;7.72;2.45;;;15.20;60.80;;;;;;5073486;28;20056;-83
2021/10/16 12:34:31;;;;;;;11.00;2.25;;;15.20;60.70;;;;;;5073195;28;20406;-84
2021/10/16 12:37:00;;;;;;;11.20;3.10;;;15.30;60.60;;;;;;5072875;28;20120;-83
2021/10/16 12:39:35;;;;;;;9.93;2.70;;;15.30;60.50;;;;;;5070469;28;20038;-84
2021/10/16 12:42:20;;;;;;;12.48;2.78;;;15.40;60.40;;;;;;5071787;28;20543;-85
2021/10/16 12:44:48;;;;;;;9.70;2.50;;;15.40;60.20;;;;;;5084999;28;20109;-84
2021/10/16 12:47:33;;;;;;;11.73;3.25;;;15.50;60.20;;;;;;5074428;28;20045;-84
2021/10/16 12:50:06;;;;;;;9.00;2.88;;;15.60;60.00;;;;;;5074257;28;20263;-84
2021/10/16 12:52:40;;;;;;;9.13;2.90;;;15.60;59.90;;;;;;5072890;28;20501;-84
2021/10/16 12:55:14;;;;;;;11.70;2.83;;;15.70;59.80;;;;;;5071706;28;20566;-84